createdAt,value
2018-04-02T00:01:42.638Z,19.62
2018-04-02T00:04:09.341Z,19.57
2018-04-02T00:06:35.954Z,19.57
2018-04-02T00:09:02.685Z,19.56
2018-04-02T00:11:29.290Z,19.56
2018-04-02T00:13:57.693Z,19.55
2018-04-02T00:16:22.639Z,19.54
2018-04-02T00:18:49.284Z,19.55
2018-04-02T00:21:19.006Z,19.53
2018-04-02T00:23:45.698Z,19.49
2018-04-02T00:26:12.412Z,19.49
2018-04-02T00:28:39.008Z,19.45
2018-04-02T00:31:05.652Z,19.48
2018-04-02T00:33:32.354Z,19.49
2018-04-02T00:35:59.065Z,19.47
2018-04-02T00:38:25.801Z,19.45
2018-04-02T00:40:52.527Z,19.48
2018-04-02T00:43:19.211Z,19.46
2018-04-02T00:45:45.808Z,19.43
2018-04-02T00:48:14.346Z,19.41
2018-04-02T00:50:39.154Z,19.40
2018-04-02T00:53:05.753Z,19.43
2018-04-02T00:55:33.624Z,19.42
2018-04-02T00:58:00.260Z,19.40
2018-04-02T01:00:26.908Z,19.41
2018-04-02T01:02:53.574Z,19.38
2018-04-02T01:05:20.205Z,19.36
2018-04-02T01:07:46.799Z,19.33
2018-04-02T01:10:14.044Z,19.31
2018-04-02T01:12:40.703Z,19.33
2018-04-02T01:15:07.337Z,19.32
2018-04-02T01:17:34.043Z,19.31
2018-04-02T01:20:00.713Z,19.26
2018-04-02T01:22:27.351Z,19.28
2018-04-02T01:24:54.122Z,19.25
2018-04-02T01:27:20.799Z,19.28
2018-04-02T01:29:47.432Z,19.27
2018-04-02T01:32:14.074Z,19.25
2018-04-02T01:34:40.677Z,19.22
2018-04-02T01:37:07.315Z,19.25
2018-04-02T01:39:36.102Z,19.24
2018-04-02T01:42:02.713Z,19.21
2018-04-02T01:44:29.316Z,19.19
2018-04-02T01:46:58.826Z,19.18
2018-04-02T01:49:25.528Z,19.17
2018-04-02T01:51:52.269Z,19.19
2018-04-02T01:54:18.907Z,19.15
2018-04-02T01:56:45.586Z,19.17
2018-04-02T01:59:12.218Z,19.19
2018-04-02T02:01:40.257Z,19.16
2018-04-02T02:04:05.525Z,19.16
2018-04-02T02:06:32.172Z,19.15
2018-04-02T02:08:58.971Z,19.13
2018-04-02T02:11:27.377Z,19.11
2018-04-02T02:13:53.999Z,19.11
2018-04-02T02:16:20.628Z,19.14
2018-04-02T02:18:47.342Z,19.12
2018-04-02T02:21:13.943Z,19.13
2018-04-02T02:23:40.617Z,19.11
2018-04-02T02:26:07.208Z,19.12
2018-04-02T02:28:33.839Z,19.10
2018-04-02T02:31:00.514Z,19.09
2018-04-02T02:33:27.191Z,19.07
2018-04-02T02:35:53.828Z,19.06
2018-04-02T02:38:20.463Z,19.06
2018-04-02T02:40:47.926Z,19.04
2018-04-02T02:43:14.564Z,19.07
2018-04-02T02:45:41.209Z,19.07
2018-04-02T02:48:09.754Z,19.02
2018-04-02T02:50:34.508Z,19.05
2018-04-02T02:53:01.152Z,19.01
2018-04-02T02:55:27.785Z,19.00
2018-04-02T02:57:55.522Z,19.00
2018-04-02T03:00:21.111Z,18.99
2018-04-02T03:02:47.704Z,19.01
2018-04-02T03:05:16.389Z,19.00
2018-04-02T03:07:40.984Z,18.94
2018-04-02T03:10:09.462Z,19.08
2018-04-02T03:12:34.986Z,19.06
2018-04-02T03:15:01.635Z,19.07
2018-04-02T03:17:28.306Z,18.88
2018-04-02T03:19:56.221Z,18.63
2018-04-02T03:22:22.862Z,18.44
2018-04-02T03:24:49.500Z,18.27
2018-04-02T03:27:16.172Z,18.11
2018-04-02T03:29:42.771Z,18.53
2018-04-02T03:32:09.433Z,18.77
2018-04-02T03:34:36.150Z,18.84
2018-04-02T03:37:04.142Z,18.97
2018-04-02T03:39:29.427Z,18.96
2018-04-02T03:41:56.102Z,19.08
2018-04-02T03:44:24.567Z,19.45
2018-04-02T03:46:49.338Z,19.70
2018-04-02T03:49:15.997Z,19.82
2018-04-02T03:51:42.726Z,19.95
2018-04-02T03:54:09.334Z,20.07
2018-04-02T03:56:36.015Z,20.19
2018-04-02T03:59:02.815Z,20.28
2018-04-02T04:01:29.422Z,20.38
2018-04-02T04:03:56.052Z,20.43
2018-04-02T04:06:22.687Z,20.51
2018-04-02T04:08:49.326Z,20.64
2018-04-02T04:11:16.054Z,20.73
2018-04-02T04:13:42.733Z,20.82
2018-04-02T04:16:09.327Z,20.84
2018-04-02T04:18:36.064Z,20.88
2018-04-02T04:21:04.849Z,21.09
2018-04-02T04:23:31.567Z,21.18
2018-04-02T04:25:58.238Z,21.19
2018-04-02T04:28:24.882Z,21.16
2018-04-02T04:30:52.911Z,21.30
2018-04-02T04:33:18.297Z,21.51
2018-04-02T04:35:45.926Z,21.74
2018-04-02T04:38:12.564Z,22.02
2018-04-02T04:40:39.199Z,22.27
2018-04-02T04:43:05.874Z,22.51
2018-04-02T04:45:32.506Z,22.59
2018-04-02T04:47:59.224Z,22.46
2018-04-02T04:50:25.893Z,22.37
2018-04-02T04:52:52.502Z,22.18
2018-04-02T04:55:19.173Z,22.02
2018-04-02T04:57:45.821Z,21.99
2018-04-02T05:00:13.766Z,21.98
2018-04-02T05:02:39.096Z,21.94
2018-04-02T05:05:05.755Z,21.92
2018-04-02T05:07:32.427Z,21.95
2018-04-02T05:10:01.987Z,21.93
2018-04-02T05:12:28.627Z,22.01
2018-04-02T05:14:55.251Z,22.02
2018-04-02T05:17:21.973Z,22.05
2018-04-02T05:19:48.558Z,22.01
2018-04-02T05:22:16.498Z,22.19
2018-04-02T05:24:41.878Z,22.12
2018-04-02T05:27:11.820Z,22.18
2018-04-02T05:29:38.539Z,22.20
2018-04-02T05:32:05.151Z,22.26
2018-04-02T05:34:31.815Z,22.13
2018-04-02T05:36:58.459Z,22.26
2018-04-02T05:39:25.179Z,22.26
2018-04-02T05:41:51.865Z,22.29
2018-04-02T05:44:18.590Z,22.32
2018-04-02T05:46:45.306Z,22.43
2018-04-02T05:49:11.906Z,22.40
2018-04-02T05:51:38.866Z,22.51
2018-04-02T05:54:10.159Z,22.52
2018-04-02T05:56:36.956Z,22.54
2018-04-02T05:59:04.626Z,22.61
2018-04-02T06:01:30.247Z,22.58
2018-04-02T06:03:56.920Z,22.70
2018-04-02T06:06:23.570Z,22.56
2018-04-02T06:08:50.291Z,22.49
2018-04-02T06:11:16.920Z,22.46
2018-04-02T06:13:44.205Z,22.46
2018-04-02T06:16:11.029Z,22.48
2018-04-02T06:18:37.676Z,22.52
2018-04-02T06:21:04.381Z,22.52
2018-04-02T06:23:31.007Z,22.57
2018-04-02T06:25:57.772Z,22.56
2018-04-02T06:28:24.422Z,22.59
2018-04-02T06:30:51.075Z,22.60
2018-04-02T06:33:17.816Z,22.65
2018-04-02T06:35:44.481Z,22.63
2018-04-02T06:38:11.171Z,22.71
2018-04-02T06:40:37.820Z,22.77
2018-04-02T06:43:04.495Z,22.78
2018-04-02T06:45:31.145Z,22.79
2018-04-02T06:48:00.735Z,22.85
2018-04-02T06:50:27.401Z,22.94
2018-04-02T06:52:54.179Z,23.07
2018-04-02T06:55:20.854Z,23.09
2018-04-02T06:57:47.530Z,23.05
2018-04-02T07:00:14.206Z,23.06
2018-04-02T07:02:40.827Z,23.02
2018-04-02T07:05:07.506Z,23.04
2018-04-02T07:07:34.210Z,23.02
2018-04-02T07:10:00.856Z,23.12
2018-04-02T07:12:27.584Z,23.08
2018-04-02T07:14:54.254Z,23.12
2018-04-02T07:17:20.893Z,23.12
2018-04-02T07:19:47.506Z,23.24
2018-04-02T07:22:14.214Z,23.27
2018-04-02T07:24:40.860Z,23.36
2018-04-02T07:27:07.501Z,23.36
2018-04-02T07:29:34.190Z,23.46
2018-04-02T07:32:00.831Z,23.48
2018-04-02T07:34:27.479Z,23.42
2018-04-02T07:36:54.121Z,23.59
2018-04-02T07:39:20.794Z,23.49
2018-04-02T07:41:47.445Z,23.53
2018-04-02T07:44:15.378Z,23.26
2018-04-02T07:46:40.794Z,23.02
2018-04-02T07:49:07.488Z,22.98
2018-04-02T07:51:34.139Z,23.35
2018-04-02T07:54:00.782Z,23.67
2018-04-02T07:56:27.451Z,23.83
2018-04-02T07:58:54.108Z,24.12
2018-04-02T08:01:20.756Z,24.18
2018-04-02T08:03:47.390Z,24.36
2018-04-02T08:06:14.262Z,24.36
2018-04-02T08:08:41.213Z,24.35
2018-04-02T08:11:07.855Z,24.34
2018-04-02T08:13:34.424Z,24.15
2018-04-02T08:16:03.771Z,24.26
2018-04-02T08:18:30.385Z,24.24
2018-04-02T08:20:57.284Z,24.09
2018-04-02T08:23:23.984Z,24.28
2018-04-02T08:25:50.698Z,24.28
2018-04-02T08:28:19.845Z,24.29
2018-04-02T08:30:46.464Z,24.29
2018-04-02T08:33:13.215Z,24.28
2018-04-02T08:35:39.877Z,24.34
2018-04-02T08:38:06.849Z,24.33
2018-04-02T08:40:35.670Z,24.44
2018-04-02T08:43:01.712Z,24.56
2018-04-02T08:45:26.948Z,24.66
2018-04-02T08:47:53.678Z,24.64
2018-04-02T08:50:20.377Z,24.71
2018-04-02T08:52:47.100Z,24.71
2018-04-02T08:55:13.776Z,24.67
2018-04-02T08:57:41.506Z,24.50
2018-04-02T09:00:08.703Z,24.30
2018-04-02T09:02:35.874Z,24.19
2018-04-02T09:05:02.656Z,24.08
2018-04-02T09:07:29.845Z,23.91
2018-04-02T09:09:56.538Z,23.82
2018-04-02T09:12:28.657Z,23.74
2018-04-02T09:15:05.716Z,23.69
2018-04-02T09:17:32.505Z,23.66
2018-04-02T09:20:00.228Z,23.62
2018-04-02T09:22:27.234Z,23.56
2018-04-02T09:24:56.796Z,23.56
2018-04-02T09:27:23.395Z,23.41
2018-04-02T09:29:50.053Z,23.36
2018-04-02T09:32:16.775Z,23.33
2018-04-02T09:34:43.598Z,23.34
2018-04-02T09:37:10.310Z,23.32
2018-04-02T09:39:37.104Z,23.18
2018-04-02T09:42:03.810Z,23.09
2018-04-02T09:44:30.470Z,23.06
2018-04-02T09:46:57.196Z,23.07
2018-04-02T09:49:23.858Z,22.99
2018-04-02T09:51:50.502Z,23.00
2018-04-02T09:54:17.252Z,22.94
2018-04-02T09:56:43.871Z,22.97
2018-04-02T09:59:10.603Z,22.98
2018-04-02T10:01:37.329Z,22.89
2018-04-02T10:04:06.873Z,22.97
2018-04-02T10:06:33.491Z,23.05
2018-04-02T10:09:00.181Z,22.98
2018-04-02T10:11:26.890Z,23.09
2018-04-02T10:13:53.530Z,23.08
2018-04-02T10:16:20.185Z,23.03
2018-04-02T10:18:50.006Z,23.00
2018-04-02T10:21:16.651Z,23.07
2018-04-02T10:23:43.293Z,23.14
2018-04-02T10:26:09.973Z,23.21
2018-04-02T10:28:36.626Z,23.17
2018-04-02T10:31:03.377Z,23.16
2018-04-02T10:33:31.946Z,23.20
2018-04-02T10:35:58.684Z,23.26
2018-04-02T10:38:25.400Z,23.29
2018-04-02T10:40:55.656Z,23.25
2018-04-02T10:43:20.780Z,23.25
2018-04-02T10:45:49.784Z,23.23
2018-04-02T10:48:16.529Z,23.31
2018-04-02T10:50:43.198Z,23.20
2018-04-02T10:53:11.196Z,23.16
2018-04-02T10:55:36.484Z,23.19
2018-04-02T10:58:03.163Z,23.29
2018-04-02T11:00:29.886Z,23.28
2018-04-02T11:02:56.531Z,23.12
2018-04-02T11:05:23.257Z,23.26
2018-04-02T11:07:50.034Z,23.28
2018-04-02T11:10:16.658Z,23.12
2018-04-02T11:12:46.518Z,23.15
2018-04-02T11:15:16.819Z,23.24
2018-04-02T11:17:41.023Z,23.15
2018-04-02T11:20:07.796Z,23.31
2018-04-02T11:22:34.659Z,23.24
2018-04-02T11:25:01.343Z,23.33
2018-04-02T11:27:28.902Z,23.27
2018-04-02T11:29:55.509Z,23.26
2018-04-02T11:32:22.342Z,23.32
2018-04-02T11:34:49.057Z,23.31
2018-04-02T11:37:15.896Z,23.40
2018-04-02T11:39:42.730Z,23.44
2018-04-02T11:42:09.315Z,23.39
2018-04-02T11:44:37.508Z,23.36
2018-04-02T11:47:02.882Z,23.33
2018-04-02T11:49:29.568Z,23.26
2018-04-02T11:51:56.316Z,23.32
2018-04-02T11:54:23.043Z,23.31
2018-04-02T11:56:49.758Z,23.31
2018-04-02T11:59:18.496Z,23.40
2018-04-02T12:01:43.165Z,23.30
2018-04-02T12:04:09.831Z,23.37
2018-04-02T12:06:36.545Z,23.44
2018-04-02T12:09:03.386Z,23.42
2018-04-02T12:11:30.178Z,23.42
2018-04-02T12:13:56.862Z,23.42
2018-04-02T12:16:23.622Z,23.49
2018-04-02T12:18:50.275Z,23.39
2018-04-02T12:21:16.949Z,23.63
2018-04-02T12:23:43.605Z,23.61
2018-04-02T12:26:10.209Z,23.51
2018-04-02T12:28:39.065Z,23.48
2018-04-02T12:31:05.932Z,23.65
2018-04-02T12:33:32.598Z,23.55
2018-04-02T12:35:59.267Z,23.48
2018-04-02T12:38:25.991Z,23.47
2018-04-02T12:40:52.622Z,23.49
2018-04-02T12:43:19.589Z,23.50
2018-04-02T12:45:46.224Z,23.50
2018-04-02T12:48:12.876Z,23.47
2018-04-02T12:50:40.995Z,23.45
2018-04-02T12:53:06.242Z,23.46
2018-04-02T12:55:32.888Z,23.45
2018-04-02T12:57:59.521Z,23.43
2018-04-02T13:00:26.257Z,23.44
2018-04-02T13:02:52.940Z,23.45
2018-04-02T13:05:19.626Z,23.43
2018-04-02T13:07:47.310Z,23.48
2018-04-02T13:10:14.119Z,23.60
2018-04-02T13:12:40.744Z,23.59
2018-04-02T13:15:07.447Z,23.55
2018-04-02T13:17:34.019Z,23.54
2018-04-02T13:20:00.795Z,23.48
2018-04-02T13:22:27.471Z,23.43
2018-04-02T13:24:54.110Z,23.42
2018-04-02T13:27:20.754Z,23.47
2018-04-02T13:29:47.489Z,23.59
2018-04-02T13:32:14.223Z,23.65
2018-04-02T13:34:41.011Z,23.55
2018-04-02T13:37:07.674Z,23.56
2018-04-02T13:39:34.454Z,23.48
2018-04-02T13:42:01.422Z,23.55
2018-04-02T13:44:28.963Z,23.61
2018-04-02T13:46:55.770Z,23.48
2018-04-02T13:49:22.420Z,23.53
2018-04-02T13:51:49.169Z,23.51
2018-04-02T13:54:15.848Z,23.48
2018-04-02T13:56:45.725Z,23.54
2018-04-02T13:59:12.332Z,23.47
2018-04-02T14:01:39.065Z,23.45
2018-04-02T14:04:07.107Z,23.54
2018-04-02T14:06:32.400Z,23.56
2018-04-02T14:08:59.103Z,23.49
2018-04-02T14:11:25.797Z,23.52
2018-04-02T14:13:52.528Z,23.49
2018-04-02T14:16:19.288Z,23.47
2018-04-02T14:18:45.935Z,23.37
2018-04-02T14:21:12.583Z,23.35
2018-04-02T14:23:39.284Z,23.30
2018-04-02T14:26:07.173Z,23.27
2018-04-02T14:28:33.934Z,23.27
2018-04-02T14:31:00.577Z,23.20
2018-04-02T14:33:27.320Z,23.15
2018-04-02T14:35:53.976Z,23.24
2018-04-02T14:38:20.680Z,23.28
2018-04-02T14:40:47.315Z,23.25
2018-04-02T14:43:14.005Z,23.14
2018-04-02T14:45:40.642Z,23.09
2018-04-02T14:48:07.319Z,23.20
2018-04-02T14:50:33.941Z,23.27
2018-04-02T14:53:00.682Z,23.25
2018-04-02T14:55:30.233Z,23.20
2018-04-02T14:57:57.048Z,23.28
2018-04-02T15:00:27.234Z,23.37
2018-04-02T15:02:53.926Z,23.48
2018-04-02T15:05:20.569Z,23.59
2018-04-02T15:07:50.183Z,23.68
2018-04-02T15:10:16.864Z,23.69
2018-04-02T15:12:43.720Z,23.74
2018-04-02T15:15:10.399Z,23.83
2018-04-02T15:17:37.060Z,23.82
2018-04-02T15:20:03.716Z,23.96
2018-04-02T15:22:30.343Z,24.00
2018-04-02T15:24:57.038Z,23.99
2018-04-02T15:27:23.724Z,24.00
2018-04-02T15:29:50.401Z,24.06
2018-04-02T15:32:17.155Z,24.06
2018-04-02T15:34:43.808Z,24.08
2018-04-02T15:37:10.473Z,24.11
2018-04-02T15:39:37.207Z,24.24
2018-04-02T15:42:05.913Z,24.11
2018-04-02T15:44:31.026Z,24.21
2018-04-02T15:46:57.711Z,24.18
2018-04-02T15:49:27.204Z,24.29
2018-04-02T15:51:53.976Z,24.25
2018-04-02T15:54:20.652Z,24.24
2018-04-02T15:56:47.297Z,24.26
2018-04-02T15:59:14.027Z,24.31
2018-04-02T16:01:40.755Z,24.38
2018-04-02T16:04:07.393Z,24.27
2018-04-02T16:06:34.014Z,24.21
2018-04-02T16:09:00.690Z,24.21
2018-04-02T16:11:27.330Z,24.20
2018-04-02T16:13:59.281Z,24.17
2018-04-02T16:16:23.607Z,24.18
2018-04-02T16:18:50.285Z,24.16
2018-04-02T16:21:18.285Z,24.13
2018-04-02T16:23:43.647Z,24.23
2018-04-02T16:26:10.322Z,24.25
2018-04-02T16:28:36.998Z,24.14
2018-04-02T16:31:05.003Z,24.13
2018-04-02T16:33:30.302Z,24.12
2018-04-02T16:35:56.978Z,24.10
2018-04-02T16:38:23.622Z,24.08
2018-04-02T16:40:51.071Z,24.07
2018-04-02T16:43:17.779Z,24.08
2018-04-02T16:45:44.591Z,24.07
2018-04-02T16:48:11.303Z,24.04
2018-04-02T16:50:37.941Z,24.05
2018-04-02T16:53:04.636Z,24.04
2018-04-02T16:55:31.312Z,24.08
2018-04-02T16:57:58.047Z,24.04
2018-04-02T17:00:26.106Z,24.04
2018-04-02T17:02:51.341Z,24.07
2018-04-02T17:05:17.993Z,24.07
2018-04-02T17:07:44.654Z,24.07
2018-04-02T17:10:11.307Z,24.06
2018-04-02T17:12:37.935Z,24.06
2018-04-02T17:15:04.656Z,24.05
2018-04-02T17:17:34.067Z,24.02
2018-04-02T17:20:00.831Z,24.03
2018-04-02T17:22:27.468Z,24.05
2018-04-02T17:24:54.098Z,24.04
2018-04-02T17:27:20.807Z,24.03
2018-04-02T17:29:47.596Z,24.04
2018-04-02T17:32:14.286Z,24.01
2018-04-02T17:34:40.931Z,24.03
2018-04-02T17:37:07.596Z,24.02
2018-04-02T17:39:34.238Z,24.02
2018-04-02T17:42:00.953Z,24.05
2018-04-02T17:44:27.713Z,23.99
2018-04-02T17:46:55.732Z,24.01
2018-04-02T17:49:22.426Z,24.00
2018-04-02T17:51:47.696Z,24.00
2018-04-02T17:54:17.201Z,24.01
2018-04-02T17:56:43.883Z,23.98
2018-04-02T17:59:10.566Z,23.97
2018-04-02T18:01:37.246Z,23.97
2018-04-02T18:04:03.976Z,23.97
2018-04-02T18:06:30.689Z,23.94
2018-04-02T18:08:57.291Z,24.08
2018-04-02T18:11:24.038Z,23.98
2018-04-02T18:13:51.885Z,23.94
2018-04-02T18:16:17.357Z,23.92
2018-04-02T18:18:43.989Z,23.88
2018-04-02T18:21:10.694Z,23.88
2018-04-02T18:23:37.336Z,23.86
2018-04-02T18:26:06.406Z,23.84
2018-04-02T18:28:33.058Z,23.82
2018-04-02T18:31:00.557Z,23.81
2018-04-02T18:33:27.202Z,23.82
2018-04-02T18:35:53.981Z,23.79
2018-04-02T18:38:20.706Z,23.78
2018-04-02T18:40:48.383Z,23.78
2018-04-02T18:43:16.264Z,23.76
2018-04-02T18:45:42.861Z,23.75
2018-04-02T18:48:09.517Z,23.73
2018-04-02T18:50:36.219Z,23.71
2018-04-02T18:53:02.829Z,23.71
2018-04-02T18:55:29.506Z,23.71
2018-04-02T18:57:56.234Z,23.69
2018-04-02T19:00:23.006Z,23.72
2018-04-02T19:05:16.853Z,23.67
2018-04-02T19:07:43.556Z,23.66
2018-04-02T19:10:10.259Z,23.65
2018-04-02T19:12:36.902Z,23.66
2018-04-02T19:15:03.593Z,23.61
2018-04-02T19:17:30.238Z,23.64
2018-04-02T19:19:56.896Z,23.63
2018-04-02T19:22:23.673Z,23.64
2018-04-02T19:24:53.107Z,23.63
2018-04-02T19:27:19.758Z,23.63
2018-04-02T19:29:46.498Z,23.60
2018-04-02T19:32:13.198Z,23.58
2018-04-02T19:34:39.868Z,23.58
2018-04-02T19:37:06.588Z,23.58
2018-04-02T19:39:33.200Z,23.56
2018-04-02T19:41:59.832Z,23.55
2018-04-02T19:44:26.492Z,23.53
2018-04-02T19:46:53.331Z,23.55
2018-04-02T19:49:19.929Z,23.52
2018-04-02T19:51:46.605Z,23.53
2018-04-02T19:54:13.215Z,23.54
2018-04-02T19:56:39.844Z,23.49
2018-04-02T19:59:06.485Z,23.50
2018-04-02T20:01:33.162Z,23.48
2018-04-02T20:03:59.795Z,23.47
2018-04-02T20:06:26.423Z,23.48
2018-04-02T20:08:53.084Z,23.47
2018-04-02T20:11:20.880Z,23.48
2018-04-02T20:13:46.383Z,23.47
2018-04-02T20:16:12.986Z,23.47
2018-04-02T20:18:39.659Z,23.43
2018-04-02T20:21:07.659Z,23.41
2018-04-02T20:23:32.996Z,23.42
2018-04-02T20:25:59.784Z,23.42
2018-04-02T20:28:26.416Z,23.41
2018-04-02T20:30:54.393Z,23.41
2018-04-02T20:33:19.718Z,23.40
2018-04-02T20:35:46.440Z,23.40
2018-04-02T20:38:13.149Z,23.41
2018-04-02T20:40:39.886Z,23.39
2018-04-02T20:43:06.485Z,23.39
2018-04-02T20:45:33.213Z,23.38
2018-04-02T20:47:59.816Z,23.35
2018-04-02T20:50:26.489Z,23.35
2018-04-02T20:52:53.101Z,23.36
2018-04-02T20:55:19.738Z,23.34
2018-04-02T20:57:46.375Z,23.35
2018-04-02T21:00:13.144Z,23.33
2018-04-02T21:02:39.779Z,23.32
2018-04-02T21:05:06.412Z,23.30
2018-04-02T21:07:33.132Z,23.32
2018-04-02T21:09:59.765Z,23.30
2018-04-02T21:12:26.363Z,23.31
2018-04-02T21:14:53.029Z,23.28
2018-04-02T21:17:19.701Z,23.28
2018-04-02T21:19:46.340Z,23.28
2018-04-02T21:22:13.035Z,23.26
2018-04-02T21:24:41.868Z,23.20
2018-04-02T21:27:06.321Z,23.14
2018-04-02T21:29:32.964Z,23.01
2018-04-02T21:31:59.608Z,22.92
2018-04-02T21:34:26.197Z,22.90
2018-04-02T21:36:52.831Z,22.85
2018-04-02T21:39:19.459Z,22.94
2018-04-02T21:41:46.169Z,22.96
2018-04-02T21:44:13.104Z,22.96
2018-04-02T21:46:39.745Z,22.96
2018-04-02T21:49:06.344Z,23.00
2018-04-02T21:51:33.026Z,23.02
2018-04-02T21:53:59.639Z,23.00
2018-04-02T21:56:26.240Z,23.01
2018-04-02T21:58:52.866Z,23.04
2018-04-02T22:01:19.548Z,23.04
2018-04-02T22:03:46.150Z,23.04
2018-04-02T22:06:12.872Z,23.07
2018-04-02T22:08:39.521Z,23.04
2018-04-02T22:11:06.206Z,23.05
2018-04-02T22:13:32.801Z,23.07
2018-04-02T22:15:59.442Z,23.09
2018-04-02T22:18:26.151Z,23.08
2018-04-02T22:20:52.791Z,23.09
2018-04-02T22:23:19.421Z,23.08
2018-04-02T22:25:46.127Z,23.08
2018-04-02T22:28:12.764Z,23.10
2018-04-02T22:30:39.402Z,23.09
2018-04-02T22:33:06.133Z,23.08
2018-04-02T22:35:32.737Z,23.07
2018-04-02T22:37:59.423Z,23.06
2018-04-02T22:40:26.093Z,23.08
2018-04-02T22:42:52.734Z,23.08
2018-04-02T22:45:19.429Z,23.08
2018-04-02T22:47:46.065Z,23.06
2018-04-02T22:50:12.706Z,23.09
2018-04-02T22:52:39.343Z,23.06
2018-04-02T22:55:05.973Z,23.10
2018-04-02T22:57:32.619Z,23.08
2018-04-02T23:00:01.028Z,23.08
2018-04-02T23:02:29.181Z,23.08
2018-04-02T23:04:54.310Z,23.06
2018-04-02T23:07:20.954Z,23.05
2018-04-02T23:09:47.702Z,23.05
2018-04-02T23:12:14.331Z,23.05
2018-04-02T23:14:41.014Z,23.05
2018-04-02T23:17:07.607Z,23.05
2018-04-02T23:19:34.254Z,23.02
2018-04-02T23:22:00.891Z,23.06
2018-04-02T23:24:27.598Z,23.07
2018-04-02T23:26:54.261Z,23.03
2018-04-02T23:29:20.894Z,23.05
2018-04-02T23:31:47.569Z,23.03
2018-04-02T23:34:17.281Z,23.05
2018-04-02T23:36:43.941Z,23.04
2018-04-02T23:39:11.926Z,23.03
2018-04-02T23:41:37.343Z,23.02
2018-04-02T23:44:03.980Z,23.04
2018-04-02T23:46:30.589Z,23.04
2018-04-02T23:48:57.369Z,23.03
2018-04-02T23:51:26.162Z,23.02
2018-04-02T23:53:50.674Z,23.01
2018-04-02T23:56:17.276Z,23.01
2018-04-02T23:58:43.941Z,23.00
